Sac?>hh2p — C6YZ5 — position and weather

sailwx.info

Track history (hours):
 
Tides and Currents Weather Stations Pressure Air Temp Water Temp Dewpoint Dewpoint Depression Visibility Wind Speed Wind Dir Waves Ship Positions

Sac?>hh2p

Last reported at 2016-May-29 22:28 UTC. Time now 2016-Jun-01 03:30 UTC.
Position N 60°57' E 004°41'.

Length 70 m.

Type: Fishing. MMSI: 311038900.

Date/timePositionNaut miles runAvg speedWind from/ knotsBaromVisibWave heightAir tempDewpointWater temp
2016-May-29 22:28N 60°57' E 004°41'1010.9
2016-May-29 21:33N 60°48' E 004°30'1414.3
2016-May-29 20:33N 60°35' E 004°22'1414.3
2016-May-29 19:33N 60°21' E 004°13'1414.1
2016-May-29 18:34N 60°07' E 004°13'1414.4
2016-May-29 17:33N 59°52' E 004°13'1414.2
2016-May-29 16:33N 59°38' E 004°13'1414.2
2016-May-29 15:33N 59°24' E 004°13'1514.6
2016-May-29 14:33N 59°09' E 004°13'1413.6
2016-May-29 13:33N 58°56' E 004°21'1514.4
2016-May-29 12:32N 58°46' E 004°41'1414.5
2016-May-29 11:33N 58°35' E 004°59'1414.3
2016-May-29 10:33N 58°25' E 005°18'1414.3
2016-May-29 09:33N 58°15' E 005°38'1414.4
2016-May-29 08:33N 58°05' E 005°58'1414.4
2016-May-29 07:33N 57°56' E 006°19'1414.5
2016-May-29 06:33N 57°47' E 006°40'1514.7
2016-May-29 05:33N 57°45' E 007°08'10317.1
2016-May-28 23:33N 57°48' E 010°20'1818.2
2016-May-28 22:33N 57°46' E 010°54'1918.8
2016-May-28 21:33N 57°32' E 011°18'1918.7
2016-May-28 20:33N 57°16' E 011°35'1919.1
2016-May-28 19:33N 56°57' E 011°46'1918.8
2016-May-28 18:33N 56°40' E 011°56'1818.2
2016-May-28 17:33N 56°22' E 012°05'1817.7
2016-May-28 16:33N 56°09' E 012°27'1717.0
2016-May-28 15:34N 55°55' E 012°45'1313.2
2016-May-28 14:34N 55°43' E 012°37'0 0.1
2016-May-28 13:34N 55°43' E 012°37'0 0.0
2016-May-28 12:31N 55°43' E 012°37'0 0.0
2016-May-28 11:33N 55°43' E 012°37'0 0.0
2016-May-28 10:31N 55°43' E 012°37'0 0.0
2016-May-28 09:34N 55°43' E 012°37'0 0.0
2016-May-28 08:31N 55°43' E 012°37'0 0.0
2016-May-28 07:33N 55°43' E 012°37'0 0.0
2016-May-28 06:32N 55°43' E 012°37'0 0.0
2016-May-28 05:33N 55°43' E 012°37'0 0.2
2016-May-28 04:33N 55°43' E 012°37'8 7.8
2016-May-28 03:33N 55°35' E 012°42'1212.5
2016-May-28 02:33N 55°23' E 012°41'1110.9
2016-May-28 01:33N 55°16' E 012°55'1414.4
2016-May-28 00:33N 55°14' E 013°20'1413.7
2016-May-27 23:33N 55°14' E 013°44'1413.8
2016-May-27 22:34N 55°13' E 014°08'1313.1
2016-May-27 21:34N 55°20' E 014°27'1413.7
2016-May-27 20:34N 55°30' E 014°45'1414.1
2016-May-27 19:33N 55°36' E 015°07'1413.8
2016-May-27 18:33N 55°43' E 015°28'34114.2
2016-May-26 18:32N 59°37' E 023°14'1817.9
2016-May-26 17:33N 59°41' E 023°47'72 4.4
2016-May-26 01:09N 59°58' E 026°07'915.3
2016-May-26 00:33N 60°00' E 026°24'1615.5
2016-May-25 23:32N 59°60' E 026°56'1515.0
2016-May-25 22:34N 60°05' E 027°23'1515.0
2016-May-25 21:33N 60°11' E 027°51'1615.6
2016-May-25 20:33N 60°06' E 028°21'1515.2
2016-May-25 19:33N 60°03' E 028°50'2813.7
2016-May-25 17:31N 59°59' E 029°46'1211.0
2016-May-25 16:26N 59°54' E 030°07'5 5.2
2016-May-25 15:33N 59°55' E 030°16'1 0.7
2016-May-25 14:31N 59°56' E 030°16'0 0.0
2016-May-25 13:32N 59°56' E 030°16'0 0.0
2016-May-25 12:28N 59°56' E 030°16'0 0.0
2016-May-25 11:33N 59°56' E 030°16'0 0.0
2016-May-25 10:33N 59°56' E 030°16'0 0.0
2016-May-25 09:33N 59°56' E 030°16'0 0.0
2016-May-25 08:33N 59°56' E 030°16'0 0.0
2016-May-25 07:32N 59°56' E 030°16'0 0.0
2016-May-25 06:31N 59°56' E 030°16'0 0.0
2016-May-25 05:33N 59°56' E 030°16'0 0.0
2016-May-25 04:33N 59°56' E 030°16'0 0.0
2016-May-25 03:32N 59°56' E 030°16'0 0.0
2016-May-25 02:32N 59°56' E 030°16'0 0.0
2016-May-25 01:33N 59°56' E 030°16'0 0.0
2016-May-25 00:31N 59°56' E 030°16'0 0.0
2016-May-24 23:31N 59°56' E 030°16'0 0.0
2016-May-24 22:33N 59°56' E 030°16'0 0.0
2016-May-24 21:31N 59°56' E 030°16'0 0.0
2016-May-24 20:33N 59°56' E 030°16'0 0.0
2016-May-24 19:33N 59°56' E 030°16'0 0.0
2016-May-24 18:33N 59°56' E 030°16'0 0.0
2016-May-24 17:33N 59°56' E 030°16'0 0.0
2016-May-24 16:33N 59°56' E 030°16'0 0.0
2016-May-24 15:33N 59°56' E 030°16'0 0.0
2016-May-24 14:33N 59°56' E 030°16'0 0.0
2016-May-24 13:33N 59°56' E 030°16'0 0.0
2016-May-24 12:33N 59°56' E 030°16'0 0.0
2016-May-24 11:33N 59°56' E 030°16'0 0.0
2016-May-24 10:30N 59°56' E 030°16'0 0.0
2016-May-24 09:31N 59°56' E 030°16'0 0.0
2016-May-24 08:33N 59°56' E 030°16'0 0.4
2016-May-24 07:31N 59°56' E 030°17'0 0.5
2016-May-24 06:34N 59°56' E 030°16'0 0.0
2016-May-24 05:33N 59°56' E 030°16'0 0.0
2016-May-24 04:31N 59°56' E 030°16'0 0.0
2016-May-24 03:32N 59°56' E 030°16'0 0.0
2016-May-24 02:33N 59°56' E 030°16'0 0.0
2016-May-24 01:32N 59°56' E 030°16'0 0.0
2016-May-24 00:33N 59°56' E 030°16'0 0.0
2016-May-23 23:31N 59°56' E 030°16'0 0.0
2016-May-23 22:32N 59°56' E 030°16'0 0.0
2016-May-23 21:32N 59°56' E 030°16'0 0.0
2016-May-23 20:32N 59°56' E 030°16'0 0.0
2016-May-23 19:31N 59°56' E 030°16'0 0.0
2016-May-23 18:31N 59°56' E 030°16'0 0.0
2016-May-23 17:32N 59°56' E 030°16'0 0.0
2016-May-23 16:33N 59°56' E 030°16'0 0.0
2016-May-23 15:33N 59°56' E 030°16'0 0.0
2016-May-23 14:32N 59°56' E 030°16'0 0.0
2016-May-23 13:31N 59°56' E 030°16'0 0.0
2016-May-23 12:32N 59°56' E 030°16'0 0.0
2016-May-23 11:33N 59°56' E 030°16'0 0.0
2016-May-23 10:33N 59°56' E 030°16'0 0.0
2016-May-23 09:33N 59°56' E 030°16'0 0.0
2016-May-23 08:32N 59°56' E 030°16'0 0.0
2016-May-23 07:33N 59°56' E 030°16'0 0.0
2016-May-23 06:32N 59°56' E 030°16'0 0.0
2016-May-23 05:33N 59°56' E 030°16'0 0.0
2016-May-23 04:32N 59°56' E 030°16'3 3.3
2016-May-23 03:33N 59°53' E 030°12'8 8.0
2016-May-23 02:33N 59°56' E 029°57'1110.5
2016-May-23 01:33N 60°00' E 029°38'1312.1
2016-May-23 00:27N 60°02' E 029°11'1213.8
2016-May-22 23:33N 60°02' E 028°47'1313.5
2016-May-22 22:34N 60°05' E 028°20'1514.6
2016-May-22 21:33N 60°10' E 027°53'1514.6
2016-May-22 20:33N 60°05' E 027°26'1514.8
2016-May-22 19:33N 59°58' E 026°59'1514.9
2016-May-22 18:33N 59°58' E 026°30'1715.3
2016-May-22 17:26N 59°54' E 025°56'60 4.7
2016-May-22 04:32N 59°29' E 024°07'1414.3
2016-May-22 03:33N 59°29' E 023°39'2814.1
2016-May-22 01:34N 59°22' E 022°45'1414.1
2016-May-22 00:33N 59°18' E 022°19'12712.6
2016-May-21 14:30N 59°20' E 018°10'2 1.7
2016-May-21 13:34N 59°21' E 018°07'0 0.0
2016-May-21 12:29N 59°21' E 018°07'0 0.0
2016-May-21 11:29N 59°21' E 018°07'0 0.0
2016-May-21 10:32N 59°21' E 018°07'0 0.0
2016-May-21 09:29N 59°21' E 018°07'0 0.0
2016-May-21 08:31N 59°21' E 018°07'4 0.9
2016-May-21 04:20N 59°21' E 018°14'8811.2
2016-May-20 20:30N 59°23' E 021°07'1314.1
2016-May-20 19:34N 59°25' E 021°33'1413.7
2016-May-20 18:33N 59°27' E 021°60'1313.5
2016-May-20 17:33N 59°30' E 022°25'1614.6
2016-May-20 16:28N 59°35' E 022°55'1415.3
2016-May-20 15:33N 59°39' E 023°21'1515.3
2016-May-20 14:33N 59°43' E 023°51'1716.5
2016-May-20 13:33N 59°47' E 024°22'2117.7
2016-May-20 12:23N 59°59' E 024°57'11 1.2
2016-May-20 03:33N 60°09' E 024°59'1212.4
2016-May-20 02:33N 59°57' E 024°58'3515.6
2016-May-20 00:19N 59°58' E 026°08'1216.4
2016-May-19 23:34N 60°01' E 026°32'1616.4
2016-May-19 22:34N 60°00' E 027°05'  
Track history (hours):
 
Tides and Currents Weather Stations Pressure Air Temp Water Temp Dewpoint Dewpoint Depression Visibility Wind Speed Wind Dir Waves Ship Positions

Sac?>hh2p

Last reported at 2016-May-29 22:28 UTC. Time now 2016-Jun-01 03:30 UTC.
Position N 60°57' E 004°41'.

Length 70 m.

Type: Fishing. MMSI: 311038900.

Date/timePositionNaut miles runAvg speedWind from/ knotsBaromVisibWave heightAir tempDewpointWater temp
2016-May-29 22:28N 60°57' E 004°41'1010.9
2016-May-29 21:33N 60°48' E 004°30'1414.3
2016-May-29 20:33N 60°35' E 004°22'1414.3
2016-May-29 19:33N 60°21' E 004°13'1414.1
2016-May-29 18:34N 60°07' E 004°13'1414.4
2016-May-29 17:33N 59°52' E 004°13'1414.2
2016-May-29 16:33N 59°38' E 004°13'1414.2
2016-May-29 15:33N 59°24' E 004°13'1514.6
2016-May-29 14:33N 59°09' E 004°13'1413.6
2016-May-29 13:33N 58°56' E 004°21'1514.4
2016-May-29 12:32N 58°46' E 004°41'1414.5
2016-May-29 11:33N 58°35' E 004°59'1414.3
2016-May-29 10:33N 58°25' E 005°18'1414.3
2016-May-29 09:33N 58°15' E 005°38'1414.4
2016-May-29 08:33N 58°05' E 005°58'1414.4
2016-May-29 07:33N 57°56' E 006°19'1414.5
2016-May-29 06:33N 57°47' E 006°40'1514.7
2016-May-29 05:33N 57°45' E 007°08'10317.1
2016-May-28 23:33N 57°48' E 010°20'1818.2
2016-May-28 22:33N 57°46' E 010°54'1918.8
2016-May-28 21:33N 57°32' E 011°18'1918.7
2016-May-28 20:33N 57°16' E 011°35'1919.1
2016-May-28 19:33N 56°57' E 011°46'1918.8
2016-May-28 18:33N 56°40' E 011°56'1818.2
2016-May-28 17:33N 56°22' E 012°05'1817.7
2016-May-28 16:33N 56°09' E 012°27'1717.0
2016-May-28 15:34N 55°55' E 012°45'1313.2
2016-May-28 14:34N 55°43' E 012°37'0 0.1
2016-May-28 13:34N 55°43' E 012°37'0 0.0
2016-May-28 12:31N 55°43' E 012°37'0 0.0
2016-May-28 11:33N 55°43' E 012°37'0 0.0
2016-May-28 10:31N 55°43' E 012°37'0 0.0
2016-May-28 09:34N 55°43' E 012°37'0 0.0
2016-May-28 08:31N 55°43' E 012°37'0 0.0
2016-May-28 07:33N 55°43' E 012°37'0 0.0
2016-May-28 06:32N 55°43' E 012°37'0 0.0
2016-May-28 05:33N 55°43' E 012°37'0 0.2
2016-May-28 04:33N 55°43' E 012°37'8 7.8
2016-May-28 03:33N 55°35' E 012°42'1212.5
2016-May-28 02:33N 55°23' E 012°41'1110.9
2016-May-28 01:33N 55°16' E 012°55'1414.4
2016-May-28 00:33N 55°14' E 013°20'1413.7
2016-May-27 23:33N 55°14' E 013°44'1413.8
2016-May-27 22:34N 55°13' E 014°08'1313.1
2016-May-27 21:34N 55°20' E 014°27'1413.7
2016-May-27 20:34N 55°30' E 014°45'1414.1
2016-May-27 19:33N 55°36' E 015°07'1413.8
2016-May-27 18:33N 55°43' E 015°28'34114.2
2016-May-26 18:32N 59°37' E 023°14'1817.9
2016-May-26 17:33N 59°41' E 023°47'72 4.4
2016-May-26 01:09N 59°58' E 026°07'915.3
2016-May-26 00:33N 60°00' E 026°24'1615.5
2016-May-25 23:32N 59°60' E 026°56'1515.0
2016-May-25 22:34N 60°05' E 027°23'1515.0
2016-May-25 21:33N 60°11' E 027°51'1615.6
2016-May-25 20:33N 60°06' E 028°21'1515.2
2016-May-25 19:33N 60°03' E 028°50'2813.7
2016-May-25 17:31N 59°59' E 029°46'1211.0
2016-May-25 16:26N 59°54' E 030°07'5 5.2
2016-May-25 15:33N 59°55' E 030°16'1 0.7
2016-May-25 14:31N 59°56' E 030°16'0 0.0
2016-May-25 13:32N 59°56' E 030°16'0 0.0
2016-May-25 12:28N 59°56' E 030°16'0 0.0
2016-May-25 11:33N 59°56' E 030°16'0 0.0
2016-May-25 10:33N 59°56' E 030°16'0 0.0
2016-May-25 09:33N 59°56' E 030°16'0 0.0
2016-May-25 08:33N 59°56' E 030°16'0 0.0
2016-May-25 07:32N 59°56' E 030°16'0 0.0
2016-May-25 06:31N 59°56' E 030°16'0 0.0
2016-May-25 05:33N 59°56' E 030°16'0 0.0
2016-May-25 04:33N 59°56' E 030°16'0 0.0
2016-May-25 03:32N 59°56' E 030°16'0 0.0
2016-May-25 02:32N 59°56' E 030°16'0 0.0
2016-May-25 01:33N 59°56' E 030°16'0 0.0
2016-May-25 00:31N 59°56' E 030°16'0 0.0
2016-May-24 23:31N 59°56' E 030°16'0 0.0
2016-May-24 22:33N 59°56' E 030°16'0 0.0
2016-May-24 21:31N 59°56' E 030°16'0 0.0
2016-May-24 20:33N 59°56' E 030°16'0 0.0
2016-May-24 19:33N 59°56' E 030°16'0 0.0
2016-May-24 18:33N 59°56' E 030°16'0 0.0
2016-May-24 17:33N 59°56' E 030°16'0 0.0
2016-May-24 16:33N 59°56' E 030°16'0 0.0
2016-May-24 15:33N 59°56' E 030°16'0 0.0
2016-May-24 14:33N 59°56' E 030°16'0 0.0
2016-May-24 13:33N 59°56' E 030°16'0 0.0
2016-May-24 12:33N 59°56' E 030°16'0 0.0
2016-May-24 11:33N 59°56' E 030°16'0 0.0
2016-May-24 10:30N 59°56' E 030°16'0 0.0
2016-May-24 09:31N 59°56' E 030°16'0 0.0
2016-May-24 08:33N 59°56' E 030°16'0 0.4
2016-May-24 07:31N 59°56' E 030°17'0 0.5
2016-May-24 06:34N 59°56' E 030°16'0 0.0
2016-May-24 05:33N 59°56' E 030°16'0 0.0
2016-May-24 04:31N 59°56' E 030°16'0 0.0
2016-May-24 03:32N 59°56' E 030°16'0 0.0
2016-May-24 02:33N 59°56' E 030°16'0 0.0
2016-May-24 01:32N 59°56' E 030°16'0 0.0
2016-May-24 00:33N 59°56' E 030°16'0 0.0
2016-May-23 23:31N 59°56' E 030°16'0 0.0
2016-May-23 22:32N 59°56' E 030°16'0 0.0
2016-May-23 21:32N 59°56' E 030°16'0 0.0
2016-May-23 20:32N 59°56' E 030°16'0 0.0
2016-May-23 19:31N 59°56' E 030°16'0 0.0
2016-May-23 18:31N 59°56' E 030°16'0 0.0
2016-May-23 17:32N 59°56' E 030°16'0 0.0
2016-May-23 16:33N 59°56' E 030°16'0 0.0
2016-May-23 15:33N 59°56' E 030°16'0 0.0
2016-May-23 14:32N 59°56' E 030°16'0 0.0
2016-May-23 13:31N 59°56' E 030°16'0 0.0
2016-May-23 12:32N 59°56' E 030°16'0 0.0
2016-May-23 11:33N 59°56' E 030°16'0 0.0
2016-May-23 10:33N 59°56' E 030°16'0 0.0
2016-May-23 09:33N 59°56' E 030°16'0 0.0
2016-May-23 08:32N 59°56' E 030°16'0 0.0
2016-May-23 07:33N 59°56' E 030°16'0 0.0
2016-May-23 06:32N 59°56' E 030°16'0 0.0
2016-May-23 05:33N 59°56' E 030°16'0 0.0
2016-May-23 04:32N 59°56' E 030°16'3 3.3
2016-May-23 03:33N 59°53' E 030°12'8 8.0
2016-May-23 02:33N 59°56' E 029°57'1110.5
2016-May-23 01:33N 60°00' E 029°38'1312.1
2016-May-23 00:27N 60°02' E 029°11'1213.8
2016-May-22 23:33N 60°02' E 028°47'1313.5
2016-May-22 22:34N 60°05' E 028°20'1514.6
2016-May-22 21:33N 60°10' E 027°53'1514.6
2016-May-22 20:33N 60°05' E 027°26'1514.8
2016-May-22 19:33N 59°58' E 026°59'1514.9
2016-May-22 18:33N 59°58' E 026°30'1715.3
2016-May-22 17:26N 59°54' E 025°56'60 4.7
2016-May-22 04:32N 59°29' E 024°07'1414.3
2016-May-22 03:33N 59°29' E 023°39'2814.1
2016-May-22 01:34N 59°22' E 022°45'1414.1
2016-May-22 00:33N 59°18' E 022°19'12712.6
2016-May-21 14:30N 59°20' E 018°10'2 1.7
2016-May-21 13:34N 59°21' E 018°07'0 0.0
2016-May-21 12:29N 59°21' E 018°07'0 0.0
2016-May-21 11:29N 59°21' E 018°07'0 0.0
2016-May-21 10:32N 59°21' E 018°07'0 0.0
2016-May-21 09:29N 59°21' E 018°07'0 0.0
2016-May-21 08:31N 59°21' E 018°07'4 0.9
2016-May-21 04:20N 59°21' E 018°14'8811.2
2016-May-20 20:30N 59°23' E 021°07'1314.1
2016-May-20 19:34N 59°25' E 021°33'1413.7
2016-May-20 18:33N 59°27' E 021°60'1313.5
2016-May-20 17:33N 59°30' E 022°25'1614.6
2016-May-20 16:28N 59°35' E 022°55'1415.3
2016-May-20 15:33N 59°39' E 023°21'1515.3
2016-May-20 14:33N 59°43' E 023°51'1716.5
2016-May-20 13:33N 59°47' E 024°22'2117.7
2016-May-20 12:23N 59°59' E 024°57'11 1.2
2016-May-20 03:33N 60°09' E 024°59'1212.4
2016-May-20 02:33N 59°57' E 024°58'3515.6
2016-May-20 00:19N 59°58' E 026°08'1216.4
2016-May-19 23:34N 60°01' E 026°32'1616.4
2016-May-19 22:34N 60°00' E 027°05'  

Dump ship's entire track history